Time;durP1;ratioP1;P1;durP2;ratioP2;P2;SDS_P1;SDS_P2;PMS_P1;PMS_P2;Temp;Humidity;BMP_temperature;BMP_pressure;BME280_temperature;BME280_humidity;BME280_pressure;Samples;Min_cycle;Max_cycle;Signal;HPM_P1;HPM_P2
2022/03/03 00:01:36;;;;;;;56.63;31.05;;;;;;;;;;5074916;28;20045;-65
2022/03/03 00:04:03;;;;;;;57.20;32.45;;;;;;;;;;5074991;28;20040;-63
2022/03/03 00:06:29;;;;;;;53.22;31.80;;;;;;;;;;5075260;28;20071;-64
2022/03/03 00:08:55;;;;;;;49.00;29.98;;;;;;;;;;5075150;28;20159;-64
2022/03/03 00:11:21;;;;;;;55.03;32.15;;;;;;;;;;5075251;28;20378;-64
2022/03/03 00:13:47;;;;;;;51.80;31.83;;;;;;;;;;5074348;28;20043;-63
2022/03/03 00:16:13;;;;;;;50.20;31.52;;;;;;;;;;5075020;28;20429;-64
2022/03/03 00:18:40;;;;;;;54.00;30.48;;;;;;;;;;5074805;28;20036;-64
2022/03/03 00:21:06;;;;;;;57.22;31.75;;;;;;;;;;5075067;28;20094;-64
2022/03/03 00:23:32;;;;;;;53.72;31.63;;;;;;;;;;5074387;28;20346;-64
2022/03/03 00:25:59;;;;;;;48.88;31.60;;;;;;;;;;5074648;28;20090;-62
2022/03/03 00:28:26;;;;;;;48.75;30.35;;;;;;;;;;5074539;28;20036;-63
2022/03/03 00:30:52;;;;;;;53.25;30.88;;;;;;;;;;5074174;28;20051;-66
2022/03/03 00:33:19;;;;;;;48.65;29.52;;;;;;;;;;5073933;28;20044;-64
2022/03/03 00:35:45;;;;;;;45.35;28.90;;;;;;;;;;5073683;28;20080;-64
2022/03/03 00:38:11;;;;;;;48.85;29.00;;;;;;;;;;5056647;28;20052;-64
2022/03/03 00:40:37;;;;;;;50.08;29.40;;;;;;;;;;5074519;28;20045;-62
2022/03/03 00:43:04;;;;;;;48.63;29.65;;;;;;;;;;5073985;28;20044;-62
2022/03/03 00:45:31;;;;;;;48.40;29.92;;;;;;;;;;5073900;28;20044;-62
2022/03/03 00:47:57;;;;;;;45.80;28.15;;;;;;;;;;5074308;28;20129;-63
2022/03/03 00:50:23;;;;;;;50.10;27.92;;;;;;;;;;5074299;28;20516;-63
2022/03/03 00:52:49;;;;;;;53.25;30.73;;;;;;;;;;5055804;28;20032;-63
2022/03/03 00:55:15;;;;;;;49.97;30.35;;;;;;;;;;5073862;28;20326;-68
2022/03/03 00:57:41;;;;;;;51.75;28.98;;;;;;;;;;5073682;28;20044;-64
2022/03/03 01:00:09;;;;;;;48.90;28.60;;;;;;;;;;5073750;28;20032;-64
2022/03/03 01:02:35;;;;;;;50.25;28.13;;;;;;;;;;5073727;28;20532;-64
2022/03/03 01:05:01;;;;;;;46.97;28.35;;;;;;;;;;5074374;28;20123;-63
2022/03/03 01:07:28;;;;;;;47.40;28.00;;;;;;;;;;5084439;22;20040;-66
2022/03/03 01:09:54;;;;;;;48.47;28.55;;;;;;;;;;5073126;28;20036;-64
2022/03/03 01:12:20;;;;;;;44.40;26.48;;;;;;;;;;5074062;28;20488;-64
2022/03/03 01:14:46;;;;;;;45.88;27.45;;;;;;;;;;5074008;28;20040;-63
2022/03/03 01:17:13;;;;;;;47.47;28.13;;;;;;;;;;5073310;28;20044;-62
2022/03/03 01:19:39;;;;;;;46.05;26.40;;;;;;;;;;5074007;28;20051;-63
2022/03/03 01:22:06;;;;;;;46.45;29.00;;;;;;;;;;5093536;28;20055;-63
2022/03/03 01:24:32;;;;;;;51.40;27.60;;;;;;;;;;5093183;28;20078;-65
2022/03/03 01:26:58;;;;;;;43.33;25.98;;;;;;;;;;5077506;28;20032;-64
2022/03/03 01:29:24;;;;;;;45.60;27.17;;;;;;;;;;5089363;28;20546;-63
2022/03/03 01:31:50;;;;;;;44.03;26.92;;;;;;;;;;5083859;28;20040;-62
2022/03/03 01:34:16;;;;;;;47.60;29.98;;;;;;;;;;5093321;28;20353;-64
2022/03/03 01:36:43;;;;;;;41.28;25.45;;;;;;;;;;5074765;28;20455;-64
2022/03/03 01:39:09;;;;;;;42.17;26.80;;;;;;;;;;5093329;28;20040;-64
2022/03/03 01:41:36;;;;;;;41.40;25.00;;;;;;;;;;5075085;28;20036;-63
2022/03/03 01:44:02;;;;;;;45.20;27.98;;;;;;;;;;5093576;28;20097;-64
2022/03/03 01:46:28;;;;;;;49.72;28.45;;;;;;;;;;5076258;28;20388;-63
2022/03/03 01:48:54;;;;;;;47.83;27.15;;;;;;;;;;5095226;22;20438;-65
2022/03/03 01:51:21;;;;;;;44.03;26.30;;;;;;;;;;5033501;28;20038;-64
2022/03/03 01:53:47;;;;;;;43.63;26.30;;;;;;;;;;5033201;28;20168;-64
2022/03/03 01:56:13;;;;;;;44.78;26.67;;;;;;;;;;5032994;28;20045;-63
2022/03/03 01:58:40;;;;;;;48.97;27.50;;;;;;;;;;5032850;28;20171;-63
2022/03/03 02:01:06;;;;;;;48.38;27.67;;;;;;;;;;5032979;28;20116;-64
2022/03/03 02:03:33;;;;;;;42.20;25.27;;;;;;;;;;5032316;28;20041;-63
2022/03/03 02:05:59;;;;;;;50.70;28.20;;;;;;;;;;5032597;28;20059;-62
2022/03/03 02:08:25;;;;;;;44.00;26.13;;;;;;;;;;5032458;28;20052;-63
2022/03/03 02:10:51;;;;;;;42.78;24.83;;;;;;;;;;5031241;28;20045;-63
2022/03/03 02:13:18;;;;;;;47.42;27.05;;;;;;;;;;5031242;28;20468;-63
2022/03/03 02:15:48;;;;;;;45.15;27.52;;;;;;;;;;5032326;28;20048;-63
2022/03/03 02:18:14;;;;;;;42.15;25.73;;;;;;;;;;5032460;28;20061;-63
2022/03/03 02:20:40;;;;;;;49.65;29.30;;;;;;;;;;5032473;28;20045;-64
2022/03/03 02:23:07;;;;;;;47.83;28.15;;;;;;;;;;5031772;28;20041;-63
2022/03/03 02:25:33;;;;;;;41.60;26.77;;;;;;;;;;5032900;28;20049;-63
2022/03/03 02:27:59;;;;;;;43.78;26.13;;;;;;;;;;5032259;28;20042;-63
2022/03/03 02:30:26;;;;;;;43.15;26.42;;;;;;;;;;5032991;28;20128;-63
2022/03/03 02:32:52;;;;;;;42.13;26.13;;;;;;;;;;5032320;28;20057;-63
2022/03/03 02:35:19;;;;;;;44.00;25.95;;;;;;;;;;5031699;28;20037;-63
2022/03/03 02:37:46;;;;;;;41.63;25.40;;;;;;;;;;5032700;28;20446;-63
2022/03/03 02:40:19;;;;;;;45.65;27.13;;;;;;;;;;5032944;28;20390;-63
2022/03/03 02:42:45;;;;;;;;;;;;;;;;;;5032708;28;20034;-63
2022/03/03 02:45:11;;;;;;;46.42;26.60;;;;;;;;;;5030884;28;19924;-63
2022/03/03 02:47:41;;;;;;;48.03;25.50;;;;;;;;;;5031024;28;20157;-63
2022/03/03 02:50:08;;;;;;;45.53;26.75;;;;;;;;;;5032049;28;20042;-65
2022/03/03 02:52:34;;;;;;;40.53;24.48;;;;;;;;;;5032142;28;20513;-63
2022/03/03 02:55:01;;;;;;;38.55;23.98;;;;;;;;;;5032035;28;20037;-64
2022/03/03 03:00:12;;;;;;;42.10;25.50;;;;;;;;;;5032296;28;20129;-63
2022/03/03 03:02:38;;;;;;;45.45;25.63;;;;;;;;;;5030759;28;20046;-66
2022/03/03 03:05:05;;;;;;;43.53;26.52;;;;;;;;;;5032375;28;20119;-64
2022/03/03 03:07:31;;;;;;;39.00;25.20;;;;;;;;;;5032394;28;20041;-64
2022/03/03 03:09:57;;;;;;;43.58;25.42;;;;;;;;;;5031928;28;20042;-63
2022/03/03 03:12:23;;;;;;;38.63;24.48;;;;;;;;;;5035241;28;20033;-63
2022/03/03 03:14:49;;;;;;;40.30;25.17;;;;;;;;;;5036159;28;20037;-66
2022/03/03 03:17:15;;;;;;;39.78;25.63;;;;;;;;;;5036201;28;20179;-64
2022/03/03 03:19:41;;;;;;;40.05;24.75;;;;;;;;;;5036150;28;20094;-64
2022/03/03 03:22:07;;;;;;;38.13;24.63;;;;;;;;;;5035422;28;20048;-64
2022/03/03 03:24:33;;;;;;;39.40;24.02;;;;;;;;;;5036532;28;20064;-64
2022/03/03 03:27:00;;;;;;;41.85;26.02;;;;;;;;;;5034793;28;20362;-65
2022/03/03 03:29:27;;;;;;;42.63;25.48;;;;;;;;;;5046726;28;20086;-63
2022/03/03 03:31:53;;;;;;;36.88;24.55;;;;;;;;;;5055267;28;20036;-64
2022/03/03 03:34:22;;;;;;;42.03;26.00;;;;;;;;;;5055310;28;20437;-63
2022/03/03 03:36:48;;;;;;;38.05;23.00;;;;;;;;;;5054763;28;20041;-65
2022/03/03 03:39:15;;;;;;;43.15;25.13;;;;;;;;;;5045956;28;20053;-64
2022/03/03 03:41:43;;;;;;;39.83;24.77;;;;;;;;;;5035691;28;20073;-66
2022/03/03 03:44:09;;;;;;;42.28;25.58;;;;;;;;;;5041984;28;20045;-63
2022/03/03 03:46:36;;;;;;;42.05;25.98;;;;;;;;;;5034839;28;20436;-63
2022/03/03 03:49:02;;;;;;;40.65;25.63;;;;;;;;;;5035228;28;20072;-64
2022/03/03 03:51:28;;;;;;;43.45;26.60;;;;;;;;;;5035187;28;20103;-63
2022/03/03 03:53:54;;;;;;;42.33;25.35;;;;;;;;;;5030615;28;20036;-61
2022/03/03 03:56:20;;;;;;;44.08;26.67;;;;;;;;;;5034265;28;20489;-63
2022/03/03 03:58:47;;;;;;;41.15;26.10;;;;;;;;;;5051709;28;20051;-63
2022/03/03 04:01:13;;;;;;;40.60;24.55;;;;;;;;;;5034563;28;20041;-63
2022/03/03 04:03:39;;;;;;;38.55;25.95;;;;;;;;;;5033410;28;20045;-63
2022/03/03 04:06:06;;;;;;;45.40;27.60;;;;;;;;;;5035033;28;20037;-64
2022/03/03 04:08:32;;;;;;;45.53;26.85;;;;;;;;;;5034282;28;20042;-65
2022/03/03 04:10:58;;;;;;;44.50;27.67;;;;;;;;;;5033714;28;20033;-64
2022/03/03 04:13:25;;;;;;;47.50;27.73;;;;;;;;;;5034956;28;20051;-64
2022/03/03 04:15:51;;;;;;;48.22;27.95;;;;;;;;;;5032823;28;20033;-64
2022/03/03 04:18:17;;;;;;;46.35;28.00;;;;;;;;;;5035155;28;20403;-64
2022/03/03 04:20:44;;;;;;;41.40;26.42;;;;;;;;;;5035521;28;20056;-63
2022/03/03 04:23:10;;;;;;;42.35;26.67;;;;;;;;;;5049374;28;20494;-65
2022/03/03 04:25:37;;;;;;;47.63;27.80;;;;;;;;;;5033917;28;20478;-67
2022/03/03 04:28:03;;;;;;;43.03;27.20;;;;;;;;;;5035041;28;20072;-65
2022/03/03 04:30:30;;;;;;;42.30;27.15;;;;;;;;;;5050215;28;20052;-65
2022/03/03 04:32:57;;;;;;;48.38;27.52;;;;;;;;;;5033143;28;20063;-67
2022/03/03 04:35:23;;;;;;;39.17;24.98;;;;;;;;;;5034641;28;20045;-65
2022/03/03 04:37:50;;;;;;;44.10;26.55;;;;;;;;;;5034836;28;20044;-66
2022/03/03 04:40:16;;;;;;;41.20;25.15;;;;;;;;;;5034452;28;20506;-65
2022/03/03 04:42:42;;;;;;;42.75;26.52;;;;;;;;;;5034511;28;20045;-64
2022/03/03 04:45:09;;;;;;;38.70;24.80;;;;;;;;;;5034001;28;20037;-63
2022/03/03 04:47:35;;;;;;;42.67;25.63;;;;;;;;;;5033678;28;20405;-65
2022/03/03 04:50:01;;;;;;;40.35;25.45;;;;;;;;;;5033684;28;20045;-66
2022/03/03 04:52:27;;;;;;;35.58;24.67;;;;;;;;;;5030739;28;20521;-64
2022/03/03 04:54:53;;;;;;;39.15;24.85;;;;;;;;;;5028874;28;20041;-64
2022/03/03 04:57:20;;;;;;;37.85;24.35;;;;;;;;;;5045332;28;20041;-64
2022/03/03 04:59:46;;;;;;;37.00;22.73;;;;;;;;;;5054016;28;20037;-64
2022/03/03 05:02:12;;;;;;;38.67;22.65;;;;;;;;;;5053810;28;20088;-64
2022/03/03 05:04:38;;;;;;;35.67;23.70;;;;;;;;;;5057470;22;20045;-64
2022/03/03 05:07:04;;;;;;;38.15;24.67;;;;;;;;;;5031249;28;20046;-64
2022/03/03 05:09:30;;;;;;;35.42;23.65;;;;;;;;;;5034301;28;20099;-64
2022/03/03 05:11:57;;;;;;;34.75;23.73;;;;;;;;;;5047768;22;20043;-63
2022/03/03 05:14:23;;;;;;;38.20;24.33;;;;;;;;;;5046590;28;20413;-64
2022/03/03 05:16:50;;;;;;;35.13;22.48;;;;;;;;;;5050238;28;20060;-64
2022/03/03 05:19:16;;;;;;;36.80;24.17;;;;;;;;;;5039101;28;20092;-63
2022/03/03 05:21:42;;;;;;;39.17;24.30;;;;;;;;;;5035649;28;20041;-63
2022/03/03 05:24:08;;;;;;;37.17;23.05;;;;;;;;;;5041047;28;20033;-65
2022/03/03 05:26:34;;;;;;;39.40;22.80;;;;;;;;;;5041744;28;20045;-65
2022/03/03 05:29:01;;;;;;;36.58;22.10;;;;;;;;;;5053095;28;20032;-65
2022/03/03 05:31:27;;;;;;;35.67;23.77;;;;;;;;;;5039824;28;20130;-65
2022/03/03 05:33:53;;;;;;;37.80;23.15;;;;;;;;;;5045817;28;20095;-65
2022/03/03 05:36:19;;;;;;;39.67;23.45;;;;;;;;;;5042808;28;20143;-66
2022/03/03 05:38:45;;;;;;;34.70;23.00;;;;;;;;;;5043137;28;20401;-65
2022/03/03 05:41:12;;;;;;;33.08;21.50;;;;;;;;;;5046917;28;20095;-64
2022/03/03 05:43:38;;;;;;;32.22;21.92;;;;;;;;;;5040236;28;20521;-65
2022/03/03 05:46:04;;;;;;;33.75;22.98;;;;;;;;;;5050281;28;20519;-62
2022/03/03 05:48:30;;;;;;;33.03;22.63;;;;;;;;;;5051737;28;20119;-63
2022/03/03 05:50:56;;;;;;;34.35;22.55;;;;;;;;;;5051834;28;20037;-65
2022/03/03 05:53:23;;;;;;;35.47;22.25;;;;;;;;;;5051008;28;20063;-65
2022/03/03 05:55:51;;;;;;;36.33;23.73;;;;;;;;;;5051097;28;20080;-64
2022/03/03 05:58:19;;;;;;;33.47;21.55;;;;;;;;;;5022869;28;20090;-63
2022/03/03 06:00:47;;;;;;;33.72;22.15;;;;;;;;;;5051117;28;20036;-63
2022/03/03 06:03:14;;;;;;;32.63;21.98;;;;;;;;;;5050296;28;20481;-64
2022/03/03 06:05:42;;;;;;;34.80;21.98;;;;;;;;;;5037384;28;20050;-64
2022/03/03 06:08:15;;;;;;;36.65;22.33;;;;;;;;;;5030869;28;20044;-63
2022/03/03 06:10:45;;;;;;;33.08;23.02;;;;;;;;;;5030736;28;20091;-65
2022/03/03 06:13:18;;;;;;;38.28;24.00;;;;;;;;;;5030866;28;20067;-64
2022/03/03 06:15:46;;;;;;;38.55;23.33;;;;;;;;;;5030652;28;20094;-64
2022/03/03 06:18:13;;;;;;;37.13;23.52;;;;;;;;;;5031239;28;20558;-63
2022/03/03 06:20:40;;;;;;;35.15;23.63;;;;;;;;;;5030987;28;20047;-64
2022/03/03 06:23:06;;;;;;;34.20;22.15;;;;;;;;;;5041338;28;20509;-64
2022/03/03 06:25:32;;;;;;;35.88;22.88;;;;;;;;;;5050841;28;20106;-64
2022/03/03 06:27:58;;;;;;;36.00;23.15;;;;;;;;;;5051139;28;20041;-64
2022/03/03 06:30:25;;;;;;;37.42;23.67;;;;;;;;;;5050627;28;20103;-64
2022/03/03 06:32:51;;;;;;;38.40;23.73;;;;;;;;;;5050295;28;20367;-62
2022/03/03 06:35:17;;;;;;;37.55;24.55;;;;;;;;;;5051089;28;20632;-62
2022/03/03 06:37:43;;;;;;;33.17;23.40;;;;;;;;;;5050902;28;20489;-63
2022/03/03 06:40:09;;;;;;;35.47;23.30;;;;;;;;;;5050991;28;20509;-62
2022/03/03 06:42:35;;;;;;;33.15;22.42;;;;;;;;;;5051160;28;20045;-65
2022/03/03 06:45:02;;;;;;;37.78;23.90;;;;;;;;;;5052148;28;20033;-63
2022/03/03 06:47:28;;;;;;;34.88;22.58;;;;;;;;;;5055260;28;20049;-64
2022/03/03 06:49:54;;;;;;;36.10;23.05;;;;;;;;;;5055198;28;20043;-65
2022/03/03 06:52:23;;;;;;;35.15;22.52;;;;;;;;;;5054340;28;20041;-63
2022/03/03 06:54:52;;;;;;;34.63;21.85;;;;;;;;;;5055069;28;20408;-63
2022/03/03 06:57:20;;;;;;;35.00;23.13;;;;;;;;;;5054952;28;20064;-64
2022/03/03 06:59:47;;;;;;;33.33;23.20;;;;;;;;;;5054976;28;20495;-63
2022/03/03 07:02:13;;;;;;;36.10;22.75;;;;;;;;;;5054228;28;20417;-64
2022/03/03 07:04:40;;;;;;;31.45;22.00;;;;;;;;;;5054994;28;20040;-64
2022/03/03 07:07:06;;;;;;;32.53;21.73;;;;;;;;;;5054309;28;20081;-64
2022/03/03 07:09:32;;;;;;;33.65;22.90;;;;;;;;;;5053378;28;20052;-63
2022/03/03 07:12:00;;;;;;;32.47;23.30;;;;;;;;;;5054377;28;20041;-63
2022/03/03 07:14:26;;;;;;;37.03;23.35;;;;;;;;;;5054840;28;20041;-64
2022/03/03 07:17:04;;;;;;;35.05;22.10;;;;;;;;;;5054881;28;20040;-64
2022/03/03 07:19:39;;;;;;;36.40;23.20;;;;;;;;;;5054980;28;20068;-64
2022/03/03 07:22:26;;;;;;;35.00;22.48;;;;;;;;;;5069890;28;20037;-64
2022/03/03 07:24:59;;;;;;;30.83;21.77;;;;;;;;;;5054732;28;20040;-63
2022/03/03 07:27:26;;;;;;;34.72;23.05;;;;;;;;;;5054850;28;20060;-64
2022/03/03 07:29:57;;;;;;;32.53;21.75;;;;;;;;;;5054653;28;20490;-64
2022/03/03 07:32:26;;;;;;;34.70;22.08;;;;;;;;;;5054188;28;20041;-62
2022/03/03 07:34:56;;;;;;;32.72;22.33;;;;;;;;;;5053711;28;20049;-64
2022/03/03 07:37:24;;;;;;;31.63;21.42;;;;;;;;;;5054060;28;20040;-63
2022/03/03 07:39:53;;;;;;;32.33;21.38;;;;;;;;;;5053980;28;20037;-63
2022/03/03 07:42:19;;;;;;;31.08;20.33;;;;;;;;;;5053560;28;20041;-63
2022/03/03 07:44:46;;;;;;;35.28;21.50;;;;;;;;;;5053424;28;20041;-63
2022/03/03 07:47:12;;;;;;;32.85;21.10;;;;;;;;;;5053660;28;20073;-65
2022/03/03 07:49:40;;;;;;;32.33;21.58;;;;;;;;;;5053754;28;20400;-64
2022/03/03 07:52:07;;;;;;;33.78;22.05;;;;;;;;;;5053925;28;20045;-64
2022/03/03 07:54:34;;;;;;;32.47;21.35;;;;;;;;;;5053350;28;20084;-65
2022/03/03 07:57:01;;;;;;;35.03;22.50;;;;;;;;;;5052961;28;20090;-63
2022/03/03 07:59:30;;;;;;;32.85;21.15;;;;;;;;;;5053800;28;20509;-63
2022/03/03 08:01:57;;;;;;;33.45;22.27;;;;;;;;;;5053328;28;20045;-64
2022/03/03 08:04:26;;;;;;;34.70;22.20;;;;;;;;;;5053431;28;20418;-64
2022/03/03 08:06:55;;;;;;;33.58;22.10;;;;;;;;;;5053702;28;20186;-64
2022/03/03 08:09:23;;;;;;;29.55;20.10;;;;;;;;;;5054019;28;20048;-63
2022/03/03 08:11:51;;;;;;;31.25;21.25;;;;;;;;;;5053469;28;20120;-64
2022/03/03 08:14:17;;;;;;;30.15;21.73;;;;;;;;;;5053728;28;20049;-65
2022/03/03 08:16:45;;;;;;;27.80;20.48;;;;;;;;;;5053433;28;20603;-63
2022/03/03 08:19:12;;;;;;;30.40;21.17;;;;;;;;;;5053545;28;20448;-63
2022/03/03 08:21:38;;;;;;;28.77;20.75;;;;;;;;;;5052740;28;20041;-63
2022/03/03 08:24:04;;;;;;;29.27;20.80;;;;;;;;;;5052858;28;20033;-64
2022/03/03 08:26:31;;;;;;;29.17;21.48;;;;;;;;;;5052918;28;20049;-63
2022/03/03 08:28:57;;;;;;;30.13;19.65;;;;;;;;;;5053366;28;20453;-63
2022/03/03 08:31:33;;;;;;;28.25;19.85;;;;;;;;;;5052562;28;20049;-63
2022/03/03 08:34:10;;;;;;;26.83;19.77;;;;;;;;;;5050973;28;20114;-63
2022/03/03 08:36:44;;;;;;;26.33;20.05;;;;;;;;;;5052795;28;20095;-61
2022/03/03 08:39:11;;;;;;;28.02;20.75;;;;;;;;;;5051936;28;20059;-64
2022/03/03 08:41:38;;;;;;;24.83;20.48;;;;;;;;;;5052599;28;20041;-61
2022/03/03 08:44:05;;;;;;;26.30;20.70;;;;;;;;;;5051589;28;20412;-61
2022/03/03 08:46:33;;;;;;;24.77;19.45;;;;;;;;;;5052920;28;20037;-62
2022/03/03 08:49:00;;;;;;;27.63;21.05;;;;;;;;;;5051221;28;20037;-62
2022/03/03 08:51:27;;;;;;;22.42;19.70;;;;;;;;;;5052488;28;20087;-61
2022/03/03 08:53:53;;;;;;;28.45;21.17;;;;;;;;;;5052262;28;20037;-62
2022/03/03 08:56:19;;;;;;;24.00;20.33;;;;;;;;;;5052481;28;20037;-62
2022/03/03 08:58:45;;;;;;;25.98;19.77;;;;;;;;;;5052703;28;20037;-61
2022/03/03 09:01:11;;;;;;;25.73;19.40;;;;;;;;;;5052382;28;20116;-63
2022/03/03 09:03:40;;;;;;;26.38;20.85;;;;;;;;;;5050602;28;20409;-62
2022/03/03 09:06:06;;;;;;;26.27;20.02;;;;;;;;;;5051208;28;20076;-61
2022/03/03 09:08:32;;;;;;;24.38;19.08;;;;;;;;;;5052681;28;20041;-61
2022/03/03 09:10:58;;;;;;;23.35;20.00;;;;;;;;;;5052484;28;20037;-62
2022/03/03 09:13:25;;;;;;;25.13;19.92;;;;;;;;;;5050967;28;20135;-63
2022/03/03 09:15:51;;;;;;;24.02;20.73;;;;;;;;;;5052486;28;20516;-63
2022/03/03 09:18:17;;;;;;;23.15;19.70;;;;;;;;;;5052360;28;20047;-63
2022/03/03 09:20:43;;;;;;;23.58;19.70;;;;;;;;;;5052021;28;20189;-63
2022/03/03 09:23:09;;;;;;;25.77;20.70;;;;;;;;;;5050486;28;20124;-64
2022/03/03 09:25:36;;;;;;;22.42;19.88;;;;;;;;;;5051801;28;20122;-64
2022/03/03 09:28:04;;;;;;;23.42;20.35;;;;;;;;;;5052055;28;20045;-63
2022/03/03 09:30:30;;;;;;;22.73;20.30;;;;;;;;;;5050862;28;20588;-64
2022/03/03 09:32:56;;;;;;;22.40;20.10;;;;;;;;;;5050945;28;20204;-63
2022/03/03 09:35:22;;;;;;;22.27;19.88;;;;;;;;;;5050853;28;20071;-64
2022/03/03 09:37:48;;;;;;;21.73;19.40;;;;;;;;;;5052141;28;20049;-62
2022/03/03 09:40:14;;;;;;;22.73;20.27;;;;;;;;;;5051825;28;20047;-64
2022/03/03 09:42:40;;;;;;;22.02;19.40;;;;;;;;;;5051925;28;20049;-62
2022/03/03 09:45:08;;;;;;;21.90;19.15;;;;;;;;;;5051215;28;20091;-63
2022/03/03 09:47:38;;;;;;;24.27;20.38;;;;;;;;;;5051466;28;20577;-65
2022/03/03 09:50:06;;;;;;;22.23;19.77;;;;;;;;;;5051487;28;20490;-62
2022/03/03 09:52:32;;;;;;;22.05;19.75;;;;;;;;;;5051044;28;20045;-64
2022/03/03 09:54:58;;;;;;;21.73;19.25;;;;;;;;;;5051180;28;20072;-63
2022/03/03 09:57:28;;;;;;;24.17;19.65;;;;;;;;;;5050265;28;20051;-64
2022/03/03 09:59:54;;;;;;;21.80;18.95;;;;;;;;;;5051514;28;20071;-64
2022/03/03 10:02:20;;;;;;;21.60;19.40;;;;;;;;;;5051306;28;20048;-65
2022/03/03 10:04:46;;;;;;;21.55;19.35;;;;;;;;;;5050958;28;20478;-65
2022/03/03 10:07:13;;;;;;;21.23;19.00;;;;;;;;;;5051227;28;20041;-65
2022/03/03 10:12:30;;;;;;;20.52;18.33;;;;;;;;;;5050768;28;20044;-64
2022/03/03 10:15:00;;;;;;;22.17;19.25;;;;;;;;;;5050926;28;20049;-64
2022/03/03 10:17:38;;;;;;;20.95;18.73;;;;;;;;;;5050829;28;20044;-64
2022/03/03 10:20:07;;;;;;;20.75;18.65;;;;;;;;;;5050896;28;20524;-66
2022/03/03 10:22:40;;;;;;;20.70;18.52;;;;;;;;;;5050822;28;20040;-68
2022/03/03 10:25:07;;;;;;;22.20;19.33;;;;;;;;;;5050915;28;20036;-65
2022/03/03 10:27:34;;;;;;;20.42;18.33;;;;;;;;;;5050118;28;20398;-64
2022/03/03 10:30:02;;;;;;;19.55;17.63;;;;;;;;;;5051168;28;20111;-64
2022/03/03 10:32:28;;;;;;;19.92;17.92;;;;;;;;;;5050083;28;20144;-64
2022/03/03 10:35:01;;;;;;;18.70;16.73;;;;;;;;;;5051250;28;20049;-65
2022/03/03 10:37:27;;;;;;;19.30;17.40;;;;;;;;;;5050526;28;20123;-63
2022/03/03 10:39:58;;;;;;;20.90;18.38;;;;;;;;;;5050973;28;20041;-64
2022/03/03 10:42:25;;;;;;;19.27;17.38;;;;;;;;;;5049091;28;20091;-66
2022/03/03 10:44:52;;;;;;;19.13;17.23;;;;;;;;;;5050916;28;20079;-65
2022/03/03 10:47:21;;;;;;;18.83;16.92;;;;;;;;;;5050425;28;20045;-65
2022/03/03 10:49:48;;;;;;;18.60;16.70;;;;;;;;;;5051000;28;20048;-66
2022/03/03 10:52:21;;;;;;;19.25;17.35;;;;;;;;;;5050826;28;20041;-66
2022/03/03 10:54:48;;;;;;;19.45;17.58;;;;;;;;;;5037810;28;20112;-65
2022/03/03 10:57:29;;;;;;;19.17;17.17;;;;;;;;;;5033670;28;20033;-64
2022/03/03 10:59:58;;;;;;;19.00;17.20;;;;;;;;;;5040589;28;20085;-65
2022/03/03 11:02:27;;;;;;;19.42;16.60;;;;;;;;;;5035710;28;20509;-65
2022/03/03 11:04:53;;;;;;;19.17;17.30;;;;;;;;;;5042592;28;20048;-63
2022/03/03 11:07:20;;;;;;;18.58;16.88;;;;;;;;;;5040988;28;20037;-65
2022/03/03 11:09:47;;;;;;;17.33;15.60;;;;;;;;;;5046162;28;20591;-66
2022/03/03 11:12:13;;;;;;;18.70;16.73;;;;;;;;;;5038978;28;20036;-65
2022/03/03 11:14:40;;;;;;;18.73;16.83;;;;;;;;;;5040303;28;20072;-64
2022/03/03 11:17:07;;;;;;;17.10;15.45;;;;;;;;;;5043124;28;20033;-64
2022/03/03 11:19:33;;;;;;;16.80;15.20;;;;;;;;;;5050221;28;20119;-65
2022/03/03 11:21:59;;;;;;;17.60;15.93;;;;;;;;;;5049513;28;20091;-64
2022/03/03 11:24:26;;;;;;;16.92;15.30;;;;;;;;;;5050100;28;20076;-66
2022/03/03 11:26:52;;;;;;;17.48;15.77;;;;;;;;;;5051053;28;20120;-66
2022/03/03 11:29:22;;;;;;;16.52;14.90;;;;;;;;;;5050784;28;20045;-64
2022/03/03 11:32:07;;;;;;;15.88;14.30;;;;;;;;;;5050878;28;20497;-64
2022/03/03 11:34:43;;;;;;;16.45;14.85;;;;;;;;;;5054034;28;20049;-64
2022/03/03 11:37:22;;;;;;;16.25;14.77;;;;;;;;;;5054334;28;20082;-64
2022/03/03 11:39:57;;;;;;;15.90;13.35;;;;;;;;;;5054566;28;20128;-65
2022/03/03 11:42:35;;;;;;;14.55;13.25;;;;;;;;;;5053872;28;20456;-65
2022/03/03 11:45:01;;;;;;;14.95;13.55;;;;;;;;;;5054567;28;20040;-65
2022/03/03 11:47:28;;;;;;;14.55;13.05;;;;;;;;;;5054177;28;20127;-65
2022/03/03 11:50:04;;;;;;;15.02;13.50;;;;;;;;;;5053912;28;20044;-66
2022/03/03 11:52:30;;;;;;;14.05;12.80;;;;;;;;;;5053675;28;20037;-65
2022/03/03 11:54:58;;;;;;;14.48;12.98;;;;;;;;;;5052544;28;20085;-63
2022/03/03 11:57:28;;;;;;;15.00;13.60;;;;;;;;;;5054339;28;20045;-63
2022/03/03 11:59:59;;;;;;;13.90;12.60;;;;;;;;;;5053859;28;20040;-66
2022/03/03 12:02:29;;;;;;;14.77;13.25;;;;;;;;;;5052356;28;20409;-64
2022/03/03 12:05:24;;;;;;;14.73;13.30;;;;;;;;;;5053535;28;20048;-64
2022/03/03 12:07:50;;;;;;;14.77;13.30;;;;;;;;;;4999078;28;20138;-64
2022/03/03 12:10:20;;;;;;;13.98;12.68;;;;;;;;;;5053668;28;20095;-65
2022/03/03 12:12:46;;;;;;;14.40;13.10;;;;;;;;;;5051886;28;20037;-66
2022/03/03 12:15:12;;;;;;;14.45;13.15;;;;;;;;;;5053164;28;20044;-63
2022/03/03 12:17:56;;;;;;;13.73;12.43;;;;;;;;;;5053557;28;20049;-64
2022/03/03 12:20:35;;;;;;;13.30;12.02;;;;;;;;;;5052911;28;20053;-67
2022/03/03 12:23:09;;;;;;;13.43;12.18;;;;;;;;;;5052984;28;20043;-66
2022/03/03 12:25:48;;;;;;;13.32;12.02;;;;;;;;;;5052024;28;20125;-67
2022/03/03 12:28:15;;;;;;;12.75;11.45;;;;;;;;;;5051993;28;20044;-65
2022/03/03 12:30:45;;;;;;;12.63;11.32;;;;;;;;;;5052656;28;20048;-66
2022/03/03 12:33:21;;;;;;;12.48;11.35;;;;;;;;;;5051610;28;20100;-64
2022/03/03 12:35:48;;;;;;;11.15;10.15;;;;;;;;;;5053153;28;20048;-65
2022/03/03 12:38:14;;;;;;;12.90;11.70;;;;;;;;;;5053483;28;20112;-65
2022/03/03 12:40:40;;;;;;;13.98;12.10;;;;;;;;;;5052015;28;20063;-65
2022/03/03 12:43:16;;;;;;;12.27;11.18;;;;;;;;;;5052114;28;20063;-64
2022/03/03 12:45:42;;;;;;;13.30;12.00;;;;;;;;;;5053481;28;20045;-67
2022/03/03 12:48:08;;;;;;;12.60;11.48;;;;;;;;;;5052882;28;20453;-67
2022/03/03 12:50:35;;;;;;;13.10;11.90;;;;;;;;;;5052787;28;20115;-64
2022/03/03 12:53:01;;;;;;;14.55;13.13;;;;;;;;;;5053266;28;20080;-63
2022/03/03 12:55:29;;;;;;;12.68;11.43;;;;;;;;;;5053269;28;20048;-64
2022/03/03 12:57:56;;;;;;;12.23;11.02;;;;;;;;;;5052354;28;20048;-63
2022/03/03 13:00:22;;;;;;;11.50;10.40;;;;;;;;;;5053024;28;20045;-65
2022/03/03 13:02:53;;;;;;;12.73;11.52;;;;;;;;;;5052788;28;20037;-65
2022/03/03 13:05:34;;;;;;;12.70;11.60;;;;;;;;;;5052634;28;20107;-66
2022/03/03 13:08:02;;;;;;;13.18;11.98;;;;;;;;;;5052771;28;20106;-64
2022/03/03 13:10:28;;;;;;;12.00;10.90;;;;;;;;;;5052960;28;20219;-66
2022/03/03 13:12:55;;;;;;;12.18;10.95;;;;;;;;;;5051850;28;20405;-67
2022/03/03 13:15:28;;;;;;;10.88;9.90;;;;;;;;;;5052094;28;20041;-64
2022/03/03 13:17:54;;;;;;;;;;;;;;;;;;5052852;28;20044;-66
2022/03/03 13:20:20;;;;;;;11.63;10.43;;;;;;;;;;5034534;28;19917;-65
2022/03/03 13:22:46;;;;;;;11.75;10.65;;;;;;;;;;5052000;28;20397;-67
2022/03/03 13:25:19;;;;;;;12.07;11.07;;;;;;;;;;5052188;28;20037;-67
2022/03/03 13:27:46;;;;;;;12.82;11.68;;;;;;;;;;5052735;28;20053;-67
2022/03/03 13:30:12;;;;;;;11.70;10.60;;;;;;;;;;5052711;28;20041;-65
2022/03/03 13:32:45;;;;;;;11.75;10.75;;;;;;;;;;5051552;28;20068;-64
2022/03/03 13:35:12;;;;;;;11.52;10.43;;;;;;;;;;5052260;28;20067;-66
2022/03/03 13:37:38;;;;;;;10.35;9.35;;;;;;;;;;5052394;28;20049;-65
2022/03/03 13:40:19;;;;;;;10.57;9.68;;;;;;;;;;5052558;28;20132;-65
2022/03/03 13:42:45;;;;;;;10.52;9.63;;;;;;;;;;5052042;28;20094;-66
2022/03/03 13:45:11;;;;;;;11.63;10.52;;;;;;;;;;5051969;28;20036;-67
2022/03/03 13:47:42;;;;;;;10.55;9.65;;;;;;;;;;5051728;28;20096;-67
2022/03/03 13:50:18;;;;;;;10.55;9.60;;;;;;;;;;5052277;28;20481;-64
2022/03/03 13:52:44;;;;;;;11.30;10.30;;;;;;;;;;5052180;28;20456;-67
2022/03/03 13:55:14;;;;;;;10.43;9.52;;;;;;;;;;5051546;28;20045;-66
2022/03/03 13:57:40;;;;;;;9.48;8.57;;;;;;;;;;5051260;28;20045;-66
2022/03/03 14:00:25;;;;;;;9.93;9.13;;;;;;;;;;5052055;28;20032;-65
2022/03/03 14:02:52;;;;;;;10.27;9.30;;;;;;;;;;5051670;28;20045;-66
2022/03/03 14:05:18;;;;;;;9.85;8.85;;;;;;;;;;5051641;28;20045;-64
2022/03/03 14:07:54;;;;;;;9.88;8.98;;;;;;;;;;5051742;28;20052;-64
2022/03/03 14:10:20;;;;;;;10.25;9.35;;;;;;;;;;5050189;28;20091;-64
2022/03/03 14:13:02;;;;;;;10.63;9.68;;;;;;;;;;5051188;28;20465;-63
2022/03/03 14:15:28;;;;;;;10.75;9.65;;;;;;;;;;5051678;28;20052;-65
2022/03/03 14:17:54;;;;;;;10.90;9.90;;;;;;;;;;5051938;28;20049;-65
2022/03/03 14:20:20;;;;;;;11.35;10.27;;;;;;;;;;5051445;28;20098;-65
2022/03/03 14:22:56;;;;;;;11.60;10.40;;;;;;;;;;5049750;28;20092;-65
2022/03/03 14:25:22;;;;;;;11.15;10.15;;;;;;;;;;5051379;28;20504;-64
2022/03/03 14:27:49;;;;;;;10.98;9.98;;;;;;;;;;5052143;28;20048;-65